Time;durP1;ratioP1;P1;durP2;ratioP2;P2;SDS_P1;SDS_P2;PMS_P1;PMS_P2;Temp;Humidity;BMP_temperature;BMP_pressure;BME280_temperature;BME280_humidity;BME280_pressure;Samples;Min_cycle;Max_cycle;Signal;HPM_P1;HPM_P2
2022/04/03 00:01:32;;;;;;;4.88;2.30;;;0.70;99.90;;;;;;6220520;23;20012;-92
2022/04/03 00:03:57;;;;;;;6.07;2.25;;;0.70;99.90;;;;;;6220707;23;20345;-91
2022/04/03 00:06:51;;;;;;;5.30;1.90;;;0.70;99.90;;;;;;6220907;23;20035;-90
2022/04/03 00:09:17;;;;;;;5.95;2.58;;;0.60;99.90;;;;;;6235807;22;20017;-87
2022/04/03 00:11:43;;;;;;;6.20;2.50;;;0.60;99.90;;;;;;6164864;23;20020;-87
2022/04/03 00:14:08;;;;;;;6.45;2.88;;;0.50;99.90;;;;;;6164912;23;20020;-87
2022/04/03 00:16:36;;;;;;;6.82;3.70;;;0.50;99.90;;;;;;6165235;23;20013;-88
2022/04/03 00:19:02;;;;;;;6.70;3.47;;;0.50;99.90;;;;;;6165375;23;20060;-89
2022/04/03 00:21:28;;;;;;;5.05;2.22;;;0.50;99.90;;;;;;6165320;23;20036;-89
2022/04/03 00:26:29;;;;;;;5.35;2.38;;;0.50;99.90;;;;;;6228850;23;20441;-91
2022/04/03 00:28:55;;;;;;;6.00;2.25;;;0.40;99.90;;;;;;6195317;23;20637;-90
2022/04/03 00:31:21;;;;;;;6.03;2.35;;;0.40;99.90;;;;;;6213207;23;20096;-92
2022/04/03 00:33:47;;;;;;;4.65;2.60;;;0.40;99.90;;;;;;6220264;23;20043;-91
2022/04/03 00:37:02;;;;;;;5.53;2.92;;;0.40;99.90;;;;;;6211717;23;20070;-90
2022/04/03 00:39:51;;;;;;;6.93;3.10;;;0.40;99.90;;;;;;6220655;23;20354;-87
2022/04/03 00:42:17;;;;;;;6.35;2.88;;;0.40;99.90;;;;;;6211186;23;20043;-86
2022/04/03 00:44:43;;;;;;;6.13;2.60;;;0.30;99.90;;;;;;6244941;23;20016;-93
2022/04/03 00:47:09;;;;;;;5.43;2.60;;;0.30;99.90;;;;;;6246146;23;20086;-86
2022/04/03 00:49:35;;;;;;;5.80;2.87;;;0.30;99.90;;;;;;6215023;23;20012;-86
2022/04/03 00:52:01;;;;;;;7.13;3.13;;;0.30;99.90;;;;;;6208194;23;20102;-86
2022/04/03 00:54:27;;;;;;;8.60;3.17;;;0.30;99.90;;;;;;6219435;23;20302;-86
2022/04/03 00:56:52;;;;;;;7.45;3.13;;;0.30;99.90;;;;;;6219498;23;20016;-86
2022/04/03 00:59:18;;;;;;;6.45;2.90;;;0.30;99.90;;;;;;6211759;23;20035;-86
2022/04/03 01:06:57;;;;;;;4.82;2.40;;;0.20;99.90;;;;;;6303074;22;20074;-89
2022/04/03 01:09:23;;;;;;;5.93;2.85;;;0.20;99.90;;;;;;6255105;22;20023;-90
2022/04/03 01:11:48;;;;;;;7.57;2.50;;;0.10;99.90;;;;;;6255184;22;20012;-90
2022/04/03 01:14:28;;;;;;;5.57;2.50;;;0.10;99.90;;;;;;6255103;22;20015;-89
2022/04/03 01:16:54;;;;;;;6.15;2.47;;;0.10;99.90;;;;;;6280219;22;20406;-89
2022/04/03 01:19:25;;;;;;;5.38;2.30;;;0.10;99.90;;;;;;6281231;22;20050;-88
2022/04/03 01:21:51;;;;;;;5.50;2.40;;;0.10;99.90;;;;;;6280452;22;20094;-89
2022/04/03 01:24:18;;;;;;;5.03;2.60;;;0.10;99.90;;;;;;6280184;22;20054;-89
2022/04/03 01:26:43;;;;;;;;;;;0.10;99.90;;;;;;6255220;22;20090;-89
2022/04/03 01:29:09;;;;;;;6.70;2.00;;;0.10;99.90;;;;;;6248865;22;19950;-87
2022/04/03 01:31:35;;;;;;;5.82;2.00;;;0.10;99.90;;;;;;6248634;22;20019;-87
2022/04/03 01:34:00;;;;;;;3.80;2.03;;;0.10;99.90;;;;;;6279318;22;20321;-88
2022/04/03 01:36:26;;;;;;;6.05;2.13;;;0.10;99.90;;;;;;6254227;22;20023;-86
2022/04/03 01:38:51;;;;;;;7.55;2.25;;;0.10;99.90;;;;;;6279922;22;20385;-85
2022/04/03 01:41:17;;;;;;;5.45;2.15;;;0.10;99.90;;;;;;6279966;22;20011;-85
2022/04/03 01:43:43;;;;;;;5.75;2.28;;;0.20;99.90;;;;;;6254596;22;20090;-86
2022/04/03 01:46:09;;;;;;;5.50;2.17;;;0.30;99.90;;;;;;6254605;22;20050;-85
2022/04/03 01:48:34;;;;;;;6.35;2.30;;;0.30;99.90;;;;;;6254312;22;20056;-87
2022/04/03 01:51:00;;;;;;;4.80;2.05;;;0.30;99.90;;;;;;6254381;22;20038;-86
2022/04/03 01:53:26;;;;;;;5.80;2.10;;;0.40;99.90;;;;;;6280096;22;20336;-86
2022/04/03 01:56:04;;;;;;;4.40;2.17;;;0.50;99.90;;;;;;6254544;22;20027;-86
2022/04/03 01:58:30;;;;;;;5.60;2.10;;;0.50;99.90;;;;;;6254583;22;20012;-86
2022/04/03 02:00:56;;;;;;;7.20;2.00;;;0.60;99.90;;;;;;6254351;22;20098;-88
2022/04/03 02:03:22;;;;;;;5.28;1.83;;;0.60;99.90;;;;;;6254182;22;20046;-87
2022/04/03 02:05:48;;;;;;;5.78;2.40;;;0.60;99.90;;;;;;6254126;22;20467;-87
2022/04/03 02:08:15;;;;;;;5.55;2.60;;;0.70;99.90;;;;;;6254215;22;20317;-87
2022/04/03 02:10:41;;;;;;;7.25;2.30;;;0.70;99.90;;;;;;6254273;22;20078;-88
2022/04/03 02:13:07;;;;;;;4.15;2.08;;;0.70;99.90;;;;;;6254297;22;20417;-87
2022/04/03 02:15:33;;;;;;;4.65;2.10;;;0.80;99.90;;;;;;6254316;22;20022;-85
2022/04/03 02:17:59;;;;;;;4.75;2.10;;;0.80;99.90;;;;;;6256001;22;20317;-87
2022/04/03 02:20:24;;;;;;;5.15;1.90;;;0.80;99.90;;;;;;6281631;22;20015;-86
2022/04/03 02:22:50;;;;;;;5.60;2.20;;;0.90;99.90;;;;;;6256223;22;20505;-86
2022/04/03 02:25:16;;;;;;;4.20;2.00;;;0.90;99.90;;;;;;6256103;22;20038;-87
2022/04/03 02:27:46;;;;;;;5.55;2.17;;;1.00;99.90;;;;;;6256386;22;20011;-86
2022/04/03 02:30:13;;;;;;;6.95;2.10;;;1.00;99.90;;;;;;6281828;22;20019;-86
2022/04/03 02:32:39;;;;;;;;;;;1.00;99.90;;;;;;6256481;22;20015;-86
2022/04/03 02:35:07;;;;;;;9.10;2.35;;;1.00;99.90;;;;;;6281243;22;19915;-86
2022/04/03 02:37:37;;;;;;;7.05;2.13;;;1.10;99.90;;;;;;6255984;22;20367;-87
2022/04/03 02:40:05;;;;;;;5.25;2.28;;;1.10;99.90;;;;;;6253477;22;20048;-85
2022/04/03 02:42:31;;;;;;;5.35;2.25;;;1.00;99.90;;;;;;6280386;22;20015;-85
2022/04/03 02:44:57;;;;;;;6.53;2.05;;;1.00;99.90;;;;;;6256084;22;20441;-87
2022/04/03 02:47:23;;;;;;;5.57;1.80;;;0.90;99.90;;;;;;6255744;22;20022;-88
2022/04/03 02:49:50;;;;;;;5.27;1.60;;;0.90;99.90;;;;;;6255121;22;20022;-86
2022/04/03 02:52:20;;;;;;;4.43;1.10;;;0.90;99.90;;;;;;6255675;22;20561;-86
2022/04/03 02:54:46;;;;;;;1.75;0.70;;;0.90;99.90;;;;;;6281623;22;20022;-87
2022/04/03 02:57:12;;;;;;;3.65;0.70;;;0.90;99.90;;;;;;6281598;22;20011;-86
2022/04/03 02:59:38;;;;;;;3.92;0.77;;;1.00;99.90;;;;;;6255953;22;20019;-86
2022/04/03 03:02:04;;;;;;;4.27;0.80;;;1.00;99.90;;;;;;6281682;22;20011;-87
2022/04/03 03:04:31;;;;;;;2.22;0.68;;;1.00;99.90;;;;;;6281576;22;20347;-86
2022/04/03 03:06:57;;;;;;;1.42;0.52;;;1.10;99.90;;;;;;6255239;22;20057;-86
2022/04/03 03:09:23;;;;;;;3.50;0.82;;;1.10;99.90;;;;;;6281328;22;20102;-86
2022/04/03 03:11:49;;;;;;;2.97;1.00;;;1.20;99.90;;;;;;6281267;22;20102;-87
2022/04/03 03:14:15;;;;;;;4.75;0.93;;;1.20;99.90;;;;;;6281328;22;20031;-87
2022/04/03 03:16:41;;;;;;;2.50;0.80;;;1.20;99.90;;;;;;6253212;22;20098;-86
2022/04/03 03:19:06;;;;;;;2.15;0.60;;;1.20;99.90;;;;;;6280912;22;20023;-88
2022/04/03 03:21:32;;;;;;;3.80;1.00;;;1.30;99.90;;;;;;6281437;22;20023;-87
2022/04/03 03:23:58;;;;;;;4.85;1.08;;;1.30;99.90;;;;;;6281278;22;20015;-87
2022/04/03 03:26:23;;;;;;;6.20;1.20;;;1.30;99.90;;;;;;6281412;22;20011;-87
2022/04/03 03:28:49;;;;;;;5.63;0.85;;;1.30;99.90;;;;;;6255908;22;20026;-87
2022/04/03 03:31:15;;;;;;;3.67;0.93;;;1.30;99.90;;;;;;6308575;22;20037;-88
2022/04/03 03:33:40;;;;;;;1.88;0.65;;;1.30;99.90;;;;;;6281612;22;20448;-88
2022/04/03 03:36:07;;;;;;;4.97;0.82;;;1.30;99.90;;;;;;6281729;22;20011;-89
2022/04/03 03:38:33;;;;;;;;;;;1.30;99.90;;;;;;6256694;22;20045;-89
2022/04/03 03:40:58;;;;;;;3.22;0.82;;;1.30;99.90;;;;;;6251033;22;19915;-88
2022/04/03 03:43:25;;;;;;;5.07;0.98;;;1.30;99.90;;;;;;6274952;22;20017;-89
2022/04/03 03:45:50;;;;;;;2.50;0.85;;;1.30;99.90;;;;;;6281385;22;20011;-88
2022/04/03 03:48:16;;;;;;;2.67;0.80;;;1.30;99.90;;;;;;6281407;22;20108;-89
2022/04/03 03:50:42;;;;;;;5.55;1.00;;;1.30;99.90;;;;;;6255562;22;20012;-88
2022/04/03 03:53:07;;;;;;;4.13;1.08;;;1.30;99.90;;;;;;6256025;22;20025;-88
2022/04/03 03:55:33;;;;;;;3.72;1.27;;;1.30;99.90;;;;;;6281023;22;20015;-88
2022/04/03 03:57:59;;;;;;;3.65;0.90;;;1.30;99.90;;;;;;6281468;22;20018;-88
2022/04/03 04:00:25;;;;;;;3.55;0.90;;;1.30;99.90;;;;;;6281347;22;20031;-88
2022/04/03 04:02:50;;;;;;;3.47;1.00;;;1.30;99.90;;;;;;6281301;22;20158;-88
2022/04/03 04:05:17;;;;;;;6.35;1.08;;;1.30;99.90;;;;;;6255760;22;20417;-87
2022/04/03 04:07:47;;;;;;;5.32;1.00;;;1.20;99.90;;;;;;6255252;22;20034;-87
2022/04/03 04:10:15;;;;;;;2.92;1.10;;;1.30;99.90;;;;;;6280862;22;20100;-87
2022/04/03 04:12:42;;;;;;;4.70;1.30;;;1.30;99.90;;;;;;6280833;22;20065;-88
2022/04/03 04:15:09;;;;;;;3.08;1.00;;;1.30;99.90;;;;;;6280787;22;20460;-87
2022/04/03 04:17:35;;;;;;;;;;;1.30;99.90;;;;;;6255843;22;20022;-87
2022/04/03 04:20:01;;;;;;;2.95;1.13;;;1.30;99.90;;;;;;6280712;22;19914;-88
2022/04/03 04:22:27;;;;;;;3.83;1.45;;;1.30;99.90;;;;;;6255580;22;20019;-88
2022/04/03 04:24:53;;;;;;;5.15;1.40;;;1.20;99.90;;;;;;6255428;22;20018;-87
2022/04/03 04:27:18;;;;;;;3.95;1.35;;;1.20;99.90;;;;;;6280819;22;20015;-88
2022/04/03 04:29:44;;;;;;;4.70;1.73;;;1.20;99.90;;;;;;6280726;22;20344;-87
2022/04/03 04:32:10;;;;;;;3.92;1.60;;;1.20;99.90;;;;;;6280341;22;20023;-87
2022/04/03 04:34:35;;;;;;;4.72;1.40;;;1.20;99.90;;;;;;6255172;22;20019;-87
2022/04/03 04:37:01;;;;;;;3.22;1.52;;;1.20;99.90;;;;;;6255128;22;20108;-87
2022/04/03 04:39:27;;;;;;;4.35;1.58;;;1.20;99.90;;;;;;6280153;22;20023;-88
2022/04/03 04:41:52;;;;;;;4.65;1.50;;;1.10;99.90;;;;;;6280724;22;20321;-88
2022/04/03 04:44:18;;;;;;;4.80;1.85;;;1.10;99.90;;;;;;6255327;22;20019;-88
2022/04/03 04:46:44;;;;;;;3.95;1.85;;;1.10;99.90;;;;;;6255214;22;20019;-88
2022/04/03 04:49:09;;;;;;;4.07;2.00;;;1.00;99.90;;;;;;6254967;22;20023;-88
2022/04/03 04:51:36;;;;;;;4.05;1.67;;;1.00;99.90;;;;;;6280979;22;20019;-87
2022/04/03 04:54:02;;;;;;;4.88;1.70;;;1.10;99.90;;;;;;6254888;22;20019;-88
2022/04/03 04:56:28;;;;;;;5.47;1.90;;;1.00;99.90;;;;;;6254980;22;20098;-88
2022/04/03 04:58:53;;;;;;;3.83;1.90;;;1.00;99.90;;;;;;6255267;22;20007;-89
2022/04/03 05:01:19;;;;;;;4.30;1.75;;;1.00;99.90;;;;;;6280945;22;20015;-89
2022/04/03 05:03:45;;;;;;;5.80;2.28;;;0.90;99.90;;;;;;6255482;22;20011;-88
2022/04/03 05:06:13;;;;;;;4.03;2.03;;;0.90;99.90;;;;;;6280616;22;20095;-89
2022/04/03 05:08:39;;;;;;;5.13;1.75;;;0.90;99.90;;;;;;6255366;22;20030;-88
2022/04/03 05:11:06;;;;;;;4.47;1.95;;;0.90;99.90;;;;;;6280500;22;20011;-87
2022/04/03 05:13:32;;;;;;;5.88;2.40;;;0.90;99.90;;;;;;6254717;22;20443;-87
2022/04/03 05:15:58;;;;;;;7.43;2.05;;;0.90;99.90;;;;;;6280459;22;20073;-88
2022/04/03 05:18:24;;;;;;;5.88;1.98;;;0.90;99.90;;;;;;6254906;22;20015;-88
2022/04/03 05:20:50;;;;;;;5.55;1.92;;;0.90;99.90;;;;;;6255331;22;20098;-89
2022/04/03 05:23:16;;;;;;;6.65;2.10;;;1.00;99.90;;;;;;6280623;22;20015;-89
2022/04/03 05:25:41;;;;;;;5.87;1.70;;;1.00;99.90;;;;;;6281025;22;20015;-88
2022/04/03 05:28:09;;;;;;;6.07;1.90;;;1.10;99.90;;;;;;6255321;22;20050;-88
2022/04/03 05:30:35;;;;;;;4.25;1.30;;;1.10;99.90;;;;;;6255213;22;20054;-88
2022/04/03 05:33:01;;;;;;;3.65;0.95;;;1.20;99.90;;;;;;6255033;22;20015;-88
2022/04/03 05:35:27;;;;;;;3.53;1.00;;;1.20;99.90;;;;;;6280215;22;20021;-88
2022/04/03 05:37:52;;;;;;;3.53;1.13;;;1.30;99.90;;;;;;6280135;22;20444;-87
2022/04/03 05:40:19;;;;;;;6.25;1.10;;;1.30;99.90;;;;;;6280251;22;20094;-88
2022/04/03 05:42:44;;;;;;;3.97;1.10;;;1.40;99.90;;;;;;6255046;22;20023;-88
2022/04/03 05:45:10;;;;;;;5.22;1.00;;;1.40;99.90;;;;;;6254839;22;20015;-88
2022/04/03 05:47:36;;;;;;;4.75;1.23;;;1.40;99.90;;;;;;6254892;22;20420;-88
2022/04/03 05:50:02;;;;;;;3.83;1.10;;;1.50;99.90;;;;;;6280982;22;20072;-88
2022/04/03 05:52:38;;;;;;;4.00;1.20;;;1.50;99.90;;;;;;6282620;22;20019;-88
2022/04/03 05:55:04;;;;;;;2.28;1.08;;;1.50;99.90;;;;;;6251755;22;20016;-88
2022/04/03 05:57:30;;;;;;;8.18;1.58;;;1.50;99.90;;;;;;6277093;22;20337;-89
2022/04/03 05:59:55;;;;;;;5.65;1.83;;;1.50;99.90;;;;;;6256993;22;20019;-88
2022/04/03 06:02:22;;;;;;;4.72;1.80;;;1.50;99.90;;;;;;6281949;22;20026;-86
2022/04/03 06:04:47;;;;;;;6.18;1.80;;;1.50;99.90;;;;;;6282425;22;20098;-87
2022/04/03 06:07:13;;;;;;;6.75;2.15;;;1.40;99.90;;;;;;6256560;22;20047;-86
2022/04/03 06:09:39;;;;;;;4.63;2.20;;;1.40;99.90;;;;;;6256426;22;20050;-87
2022/04/03 06:12:05;;;;;;;4.90;2.10;;;1.40;99.90;;;;;;6282085;22;20015;-88
2022/04/03 06:14:30;;;;;;;5.10;2.30;;;1.40;99.90;;;;;;6256582;22;20023;-88
2022/04/03 06:16:56;;;;;;;6.82;2.22;;;1.50;99.90;;;;;;6282168;22;20011;-87
2022/04/03 06:19:31;;;;;;;8.68;2.53;;;1.60;99.90;;;;;;6281796;22;20555;-86
2022/04/03 06:21:56;;;;;;;8.02;2.83;;;1.60;99.90;;;;;;6256331;22;20081;-87
2022/04/03 06:24:22;;;;;;;5.93;2.13;;;1.60;99.90;;;;;;6255995;22;20019;-86
2022/04/03 06:26:48;;;;;;;7.35;2.22;;;1.60;99.90;;;;;;6309165;22;20011;-86
2022/04/03 06:29:13;;;;;;;6.53;2.28;;;1.70;99.90;;;;;;6256395;22;20007;-86
2022/04/03 06:31:39;;;;;;;6.38;2.20;;;1.70;99.90;;;;;;6281257;22;20044;-86
2022/04/03 06:34:23;;;;;;;5.75;2.00;;;1.80;99.90;;;;;;6256301;22;20096;-85
2022/04/03 06:37:17;;;;;;;6.63;2.10;;;1.80;99.90;;;;;;6256017;22;20015;-88
2022/04/03 06:39:42;;;;;;;4.63;2.13;;;1.90;99.90;;;;;;6256488;22;20475;-88
2022/04/03 06:42:09;;;;;;;6.82;2.42;;;1.90;99.90;;;;;;6256291;22;20019;-86
2022/04/03 06:44:35;;;;;;;6.80;1.90;;;1.90;99.90;;;;;;6256120;22;20015;-87
2022/04/03 06:47:01;;;;;;;4.57;2.05;;;2.10;99.90;;;;;;6256008;22;20016;-87
2022/04/03 06:49:30;;;;;;;5.18;1.95;;;3.00;99.90;;;;;;6255736;22;20015;-87
2022/04/03 06:51:56;;;;;;;4.68;1.70;;;4.00;99.90;;;;;;6279915;22;20070;-87
2022/04/03 06:54:21;;;;;;;4.70;2.30;;;5.00;99.90;;;;;;6255813;22;20015;-86
2022/04/03 06:56:47;;;;;;;3.90;1.50;;;5.70;99.90;;;;;;6281481;22;20011;-87
2022/04/03 06:59:13;;;;;;;4.75;1.60;;;6.20;99.90;;;;;;6255887;22;20104;-87
2022/04/03 07:01:38;;;;;;;6.07;1.55;;;6.60;99.90;;;;;;6255822;22;20011;-85
2022/04/03 07:04:05;;;;;;;5.50;1.40;;;6.70;99.90;;;;;;6308825;22;20018;-87
2022/04/03 07:06:39;;;;;;;6.45;1.38;;;6.50;99.90;;;;;;6281172;22;20364;-85
2022/04/03 07:09:05;;;;;;;4.90;1.52;;;6.20;99.90;;;;;;6255609;22;20019;-85
2022/04/03 07:11:31;;;;;;;4.80;1.40;;;6.00;99.90;;;;;;6255904;22;20490;-87
2022/04/03 07:13:56;;;;;;;3.47;1.25;;;6.00;99.90;;;;;;6255708;22;20452;-86
2022/04/03 07:16:22;;;;;;;3.90;1.30;;;6.20;99.90;;;;;;6308729;22;20030;-84
2022/04/03 07:18:48;;;;;;;3.63;1.27;;;6.20;99.90;;;;;;6308682;22;20015;-83
2022/04/03 07:21:38;;;;;;;3.47;1.00;;;6.20;99.90;;;;;;6281595;22;20181;-85
2022/04/03 07:24:28;;;;;;;5.32;1.15;;;6.60;99.90;;;;;;6281453;22;20464;-85
2022/04/03 07:26:59;;;;;;;3.35;0.80;;;7.00;99.90;;;;;;6281503;22;20015;-88
2022/04/03 07:29:25;;;;;;;4.10;1.05;;;7.00;99.90;;;;;;6255809;22;20448;-89
2022/04/03 07:31:51;;;;;;;5.28;1.17;;;6.90;99.90;;;;;;6255686;22;20030;-88
2022/04/03 07:34:18;;;;;;;8.13;1.13;;;6.60;99.90;;;;;;6255598;22;20026;-88
2022/04/03 07:36:44;;;;;;;7.18;1.40;;;6.60;99.90;;;;;;6281428;22;20017;-90
2022/04/03 07:39:10;;;;;;;3.05;0.98;;;6.60;99.90;;;;;;6256048;22;20019;-88
2022/04/03 07:41:37;;;;;;;4.70;1.10;;;6.70;99.90;;;;;;6256136;22;20387;-91
2022/04/03 07:44:05;;;;;;;2.35;0.90;;;6.90;99.90;;;;;;6279804;22;20344;-86
2022/04/03 07:46:31;;;;;;;7.63;1.10;;;7.00;99.90;;;;;;6278827;22;20638;-86
2022/04/03 07:48:56;;;;;;;5.40;1.20;;;6.90;99.90;;;;;;6279058;22;20133;-88
2022/04/03 07:51:23;;;;;;;3.20;0.97;;;6.80;99.90;;;;;;6280989;22;20149;-86
2022/04/03 07:53:49;;;;;;;;;;;6.70;99.90;;;;;;6281497;22;20015;-87
2022/04/03 07:56:15;;;;;;;4.68;0.60;;;6.50;99.90;;;;;;6255629;22;19921;-88
2022/04/03 07:58:42;;;;;;;2.63;0.43;;;6.30;99.90;;;;;;6308703;22;20054;-87
2022/04/03 08:01:07;;;;;;;1.58;0.60;;;6.10;99.90;;;;;;6281119;22;20022;-86
2022/04/03 08:03:33;;;;;;;0.93;0.47;;;6.00;99.90;;;;;;6281203;22;20051;-88
2022/04/03 08:05:59;;;;;;;2.73;0.50;;;6.00;99.90;;;;;;6308160;22;20377;-87
2022/04/03 08:08:25;;;;;;;3.93;0.60;;;5.90;99.90;;;;;;6308316;22;20460;-87
2022/04/03 08:10:50;;;;;;;4.37;1.13;;;5.90;99.90;;;;;;6281157;22;20015;-88
2022/04/03 08:13:17;;;;;;;4.97;0.95;;;5.90;99.90;;;;;;6255088;22;20026;-87
2022/04/03 08:15:42;;;;;;;5.47;1.10;;;5.90;99.90;;;;;;6255168;22;20023;-87
2022/04/03 08:18:08;;;;;;;4.17;0.80;;;5.90;99.90;;;;;;6280697;22;20094;-86
2022/04/03 08:20:34;;;;;;;3.77;0.80;;;6.00;99.90;;;;;;6281064;22;20068;-87
2022/04/03 08:23:03;;;;;;;2.00;0.80;;;6.00;99.90;;;;;;6255509;22;20149;-88
2022/04/03 08:25:31;;;;;;;3.03;1.00;;;6.00;99.90;;;;;;6255220;22;20026;-86
2022/04/03 08:27:57;;;;;;;4.72;0.85;;;6.00;99.90;;;;;;6280628;22;20023;-86
2022/04/03 08:30:34;;;;;;;4.83;1.00;;;5.90;99.90;;;;;;6307913;22;20022;-87
2022/04/03 08:33:01;;;;;;;4.47;1.05;;;5.80;99.90;;;;;;6255036;22;20250;-87
2022/04/03 08:35:28;;;;;;;5.60;1.20;;;5.70;99.90;;;;;;6307939;22;20023;-87
2022/04/03 08:37:55;;;;;;;;;;;5.70;99.90;;;;;;6281170;22;20023;-87
2022/04/03 08:40:22;;;;;;;2.53;0.75;;;5.80;99.90;;;;;;6280881;22;19918;-87
2022/04/03 08:42:50;;;;;;;4.80;1.05;;;5.80;99.90;;;;;;6280740;22;20537;-88
2022/04/03 08:45:16;;;;;;;1.45;0.52;;;5.80;99.90;;;;;;6255146;22;20019;-86
2022/04/03 08:47:44;;;;;;;4.03;0.90;;;5.90;99.90;;;;;;6255384;22;20015;-88
2022/04/03 08:50:10;;;;;;;4.13;0.80;;;6.00;99.90;;;;;;6280836;22;20011;-87
2022/04/03 08:52:38;;;;;;;4.55;0.77;;;6.10;99.90;;;;;;6280725;22;20034;-88
2022/04/03 08:55:04;;;;;;;3.70;0.70;;;6.20;99.90;;;;;;6254923;22;20019;-88
2022/04/03 08:57:30;;;;;;;3.10;0.63;;;6.20;99.90;;;;;;6249749;22;20020;-88
2022/04/03 08:59:56;;;;;;;5.47;0.70;;;6.20;99.90;;;;;;6242909;22;20022;-87
2022/04/03 09:02:22;;;;;;;3.73;0.97;;;6.20;99.90;;;;;;6280306;22;20397;-89
2022/04/03 09:04:48;;;;;;;4.13;0.63;;;6.20;99.90;;;;;;6306083;22;20254;-88
2022/04/03 09:07:18;;;;;;;5.13;0.73;;;6.30;99.90;;;;;;6307824;22;20336;-87
2022/04/03 09:09:44;;;;;;;4.20;0.60;;;6.20;99.90;;;;;;6307694;22;20038;-88
2022/04/03 09:12:10;;;;;;;5.80;0.60;;;6.10;99.90;;;;;;6254595;22;20023;-86
2022/04/03 09:14:45;;;;;;;3.80;0.60;;;6.00;99.90;;;;;;6307374;22;20019;-85
2022/04/03 09:17:10;;;;;;;6.78;0.60;;;6.00;99.90;;;;;;6280373;22;20015;-86
2022/04/03 09:19:36;;;;;;;5.53;0.70;;;6.10;99.90;;;;;;6307430;22;20007;-86
2022/04/03 09:22:02;;;;;;;2.70;0.50;;;6.10;99.90;;;;;;6280018;22;20038;-86
2022/04/03 09:24:28;;;;;;;3.67;0.50;;;6.20;99.90;;;;;;6307184;22;20015;-86
2022/04/03 09:27:02;;;;;;;3.40;0.80;;;6.20;99.90;;;;;;6306836;22;20386;-87
2022/04/03 09:29:28;;;;;;;4.65;0.70;;;6.30;99.90;;;;;;6254081;22;20090;-86
2022/04/03 09:31:59;;;;;;;4.73;1.07;;;6.40;99.90;;;;;;6280054;22;20073;-88
2022/04/03 09:34:27;;;;;;;4.57;1.05;;;6.60;99.90;;;;;;6254553;22;20387;-88
2022/04/03 09:37:05;;;;;;;3.97;0.63;;;6.70;99.90;;;;;;6307402;22;20077;-87
2022/04/03 09:39:31;;;;;;;3.55;0.60;;;6.70;99.90;;;;;;6307295;22;20400;-88
2022/04/03 09:42:05;;;;;;;4.80;0.50;;;6.60;99.90;;;;;;6254515;22;20012;-86
2022/04/03 09:44:33;;;;;;;3.25;0.60;;;6.60;99.90;;;;;;6307275;22;20019;-86
2022/04/03 09:47:22;;;;;;;3.40;0.43;;;6.70;99.90;;;;;;6280084;22;20096;-85
2022/04/03 09:50:03;;;;;;;2.03;0.50;;;6.60;99.90;;;;;;6279907;22;20090;-85
2022/04/03 09:52:35;;;;;;;2.47;0.50;;;6.40;99.90;;;;;;6280087;22;20348;-85
2022/04/03 09:55:28;;;;;;;1.90;0.50;;;6.40;99.90;;;;;;6279744;22;20019;-85
2022/04/03 09:58:05;;;;;;;3.15;0.40;;;6.50;99.90;;;;;;6279810;22;20452;-85
2022/04/03 10:00:38;;;;;;;2.30;0.30;;;6.80;99.90;;;;;;6307493;22;20213;-87
2022/04/03 10:03:04;;;;;;;1.75;0.50;;;6.90;99.90;;;;;;6280235;22;20011;-87
2022/04/03 10:05:33;;;;;;;4.28;0.50;;;6.80;99.90;;;;;;6307475;22;20098;-87
2022/04/03 10:08:02;;;;;;;2.50;0.40;;;6.70;99.90;;;;;;6307312;22;20019;-86
2022/04/03 10:10:33;;;;;;;3.78;0.63;;;6.70;99.90;;;;;;6307180;22;20011;-87
2022/04/03 10:12:59;;;;;;;1.50;0.40;;;7.00;99.90;;;;;;6279862;22;20016;-86
2022/04/03 10:15:26;;;;;;;5.23;0.80;;;7.10;99.90;;;;;;6253673;22;20023;-87
2022/04/03 10:17:52;;;;;;;3.92;0.60;;;7.00;99.90;;;;;;6279525;22;20467;-85
2022/04/03 10:20:18;;;;;;;5.80;0.50;;;6.90;99.90;;;;;;6307120;22;20015;-85
2022/04/03 10:22:47;;;;;;;4.03;0.68;;;7.00;99.90;;;;;;6279841;22;20015;-85
2022/04/03 10:25:24;;;;;;;5.10;0.70;;;7.20;99.90;;;;;;6279809;22;20015;-86
2022/04/03 10:27:51;;;;;;;4.68;0.85;;;7.40;99.90;;;;;;6307138;22;20050;-89
2022/04/03 10:30:17;;;;;;;4.07;0.60;;;7.60;99.90;;;;;;6254247;22;20015;-89
2022/04/03 10:32:59;;;;;;;1.73;0.70;;;7.80;99.90;;;;;;6280151;22;20102;-88
2022/04/03 10:35:25;;;;;;;3.20;0.88;;;8.00;99.90;;;;;;6307333;22;20050;-88
2022/04/03 10:38:02;;;;;;;6.43;0.70;;;7.90;99.90;;;;;;6255595;22;20030;-86
2022/04/03 10:40:30;;;;;;;;;;;7.70;99.90;;;;;;6282408;22;20015;-88
2022/04/03 10:43:02;;;;;;;2.85;0.60;;;7.50;99.90;;;;;;6256392;22;19925;-87
2022/04/03 10:45:36;;;;;;;2.78;0.75;;;7.40;99.90;;;;;;6309075;22;20064;-87
2022/04/03 10:48:23;;;;;;;5.45;0.50;;;7.30;99.90;;;;;;6281579;22;20019;-86
2022/04/03 10:51:20;;;;;;;3.63;0.50;;;7.10;99.90;;;;;;6255864;22;20023;-85
2022/04/03 10:53:49;;;;;;;1.77;0.50;;;6.80;99.90;;;;;;6281481;22;20024;-86
2022/04/03 10:56:26;;;;;;;1.95;0.50;;;6.50;99.90;;;;;;6281555;22;20476;-83
2022/04/03 10:58:55;;;;;;;2.23;0.50;;;6.30;99.90;;;;;;6281731;22;20019;-84
2022/04/03 11:01:30;;;;;;;3.28;0.60;;;6.10;99.90;;;;;;6308898;22;20015;-86
2022/04/03 11:04:11;;;;;;;2.47;0.50;;;6.00;99.90;;;;;;6307992;22;20025;-87
2022/04/03 11:06:41;;;;;;;3.30;0.50;;;5.80;99.90;;;;;;6255182;22;20018;-88
2022/04/03 11:09:25;;;;;;;3.00;0.40;;;5.70;99.90;;;;;;6256060;22;20012;-86
2022/04/03 11:11:59;;;;;;;2.22;0.28;;;5.70;99.90;;;;;;6255921;22;20023;-86
2022/04/03 11:14:47;;;;;;;1.65;0.35;;;5.70;99.90;;;;;;6281198;22;20016;-87
2022/04/03 11:17:13;;;;;;;;;;;5.80;99.90;;;;;;6251124;22;20012;-87
2022/04/03 11:19:45;;;;;;;1.77;0.30;;;5.80;99.90;;;;;;6252193;22;19954;-88
2022/04/03 11:22:15;;;;;;;1.58;0.40;;;5.90;99.90;;;;;;6255726;22;20011;-88
2022/04/03 11:24:41;;;;;;;1.58;0.38;;;5.90;99.90;;;;;;6255766;22;20016;-87
2022/04/03 11:27:08;;;;;;;1.90;0.40;;;6.00;99.90;;;;;;6308752;22;20018;-90
2022/04/03 11:29:35;;;;;;;1.70;0.80;;;6.10;99.90;;;;;;6255782;22;20026;-85
2022/04/03 11:32:04;;;;;;;3.75;0.50;;;6.20;99.90;;;;;;6255910;22;20073;-87
2022/04/03 11:34:33;;;;;;;1.50;0.50;;;6.30;99.90;;;;;;6256832;22;20076;-89
2022/04/03 11:37:02;;;;;;;2.30;0.47;;;6.40;99.90;;;;;;6281784;22;20015;-88
2022/04/03 11:39:35;;;;;;;1.55;0.32;;;6.40;99.90;;;;;;6281611;22;20023;-90
2022/04/03 11:42:04;;;;;;;2.20;0.50;;;6.60;99.90;;;;;;6281956;22;20034;-88
2022/04/03 11:44:30;;;;;;;1.55;0.40;;;6.90;99.90;;;;;;6256401;22;20452;-91
2022/04/03 11:46:55;;;;;;;1.27;0.40;;;7.10;99.90;;;;;;6256402;22;20015;-89
2022/04/03 11:49:26;;;;;;;;;;;7.40;99.90;;;;;;6282437;22;20537;-90
2022/04/03 11:52:07;;;;;;;4.20;0.68;;;7.60;99.90;;;;;;6256449;22;20332;-92
2022/04/03 11:54:34;;;;;;;1.63;0.50;;;7.90;99.90;;;;;;6256597;22;20329;-89
2022/04/03 11:57:05;;;;;;;1.13;0.40;;;8.00;99.90;;;;;;6256136;22;20043;-89
2022/04/03 11:59:36;;;;;;;2.75;0.50;;;8.20;99.90;;;;;;6254293;22;20077;-88
2022/04/03 12:02:15;;;;;;;2.88;0.80;;;8.30;99.90;;;;;;6248823;22;20015;-90
2022/04/03 12:04:42;;;;;;;2.97;0.75;;;8.50;99.90;;;;;;6276880;22;20204;-91
2022/04/03 12:07:14;;;;;;;3.67;0.80;;;8.70;99.90;;;;;;6260843;22;20104;-96
2022/04/03 12:09:45;;;;;;;4.35;0.63;;;8.80;99.90;;;;;;6284542;22;20023;-90
2022/04/03 12:12:21;;;;;;;3.15;0.55;;;8.80;99.90;;;;;;6258784;22;20015;-91
2022/04/03 12:14:47;;;;;;;3.38;0.57;;;8.70;99.90;;;;;;6255630;22;20023;-87
2022/04/03 12:17:18;;;;;;;1.80;0.30;;;8.70;99.90;;;;;;6281793;22;20053;-86
2022/04/03 12:19:50;;;;;;;1.45;0.25;;;8.60;99.90;;;;;;6281185;22;20090;-89
2022/04/03 12:22:19;;;;;;;1.73;0.30;;;8.60;99.90;;;;;;6280991;22;20100;-88
2022/04/03 12:24:47;;;;;;;3.38;0.57;;;8.70;98.90;;;;;;6254189;22;20011;-88
2022/04/03 12:27:18;;;;;;;3.90;0.65;;;8.80;98.40;;;;;;6281219;22;20015;-90
2022/04/03 12:35:09;;;;;;;3.40;0.63;;;8.50;99.60;;;;;;6307641;22;20073;-87
2022/04/03 12:37:43;;;;;;;5.05;0.90;;;8.20;99.90;;;;;;6257414;22;20054;-87
2022/04/03 12:40:15;;;;;;;5.30;0.90;;;8.10;99.90;;;;;;6255724;22;20019;-87
2022/04/03 12:51:24;;;;;;;4.70;0.70;;;8.10;99.90;;;;;;6287341;22;20019;-88
2022/04/03 12:53:55;;;;;;;4.85;0.60;;;8.30;99.90;;;;;;6250097;22;20077;-88
2022/04/03 13:07:08;;;;;;;2.53;0.40;;;8.50;97.20;;;;;;6276352;22;20023;-87
2022/04/03 13:09:45;;;;;;;1.98;0.50;;;8.50;95.70;;;;;;6222535;22;20356;-89
2022/04/03 13:12:16;;;;;;;3.47;0.50;;;8.30;95.60;;;;;;6248924;22;20015;-89
2022/04/03 13:14:42;;;;;;;3.42;0.40;;;8.20;96.70;;;;;;6220785;22;20020;-89
2022/04/03 13:17:09;;;;;;;3.60;0.70;;;8.10;97.00;;;;;;6248083;22;20035;-89
2022/04/03 13:19:45;;;;;;;3.28;0.63;;;8.00;96.90;;;;;;6223463;22;20061;-89
2022/04/03 13:22:15;;;;;;;3.80;0.68;;;8.10;97.20;;;;;;6223623;22;20077;-88
2022/04/03 13:24:41;;;;;;;3.03;0.60;;;8.20;97.10;;;;;;6225178;22;20086;-90
2022/04/03 13:27:14;;;;;;;4.10;0.67;;;8.30;96.40;;;;;;6276990;22;20469;-90
2022/04/03 13:37:26;;;;;;;1.92;0.40;;;8.50;94.90;;;;;;6276672;22;20020;-86
2022/04/03 13:39:52;;;;;;;6.97;0.60;;;8.50;94.50;;;;;;6224056;22;20026;-87
2022/04/03 13:55:15;;;;;;;1.92;0.77;;;8.60;92.90;;;;;;6276320;22;20445;-85
2022/04/03 13:57:41;;;;;;;5.93;0.70;;;8.50;93.60;;;;;;6249925;22;20026;-89
2022/04/03 14:00:08;;;;;;;3.20;0.70;;;8.60;93.70;;;;;;6275507;22;20039;-86